Estrela Do Mar — CUMD9 — position and weather

sailwx.info

Track history (hours):
 
Tides and Currents Weather Stations Pressure Air Temp Water Temp Dewpoint Dewpoint Depression Visibility Wind Speed Wind Dir Waves Ship Positions

Estrela Do Mar

Last reported at 2017-Nov-29 12:17 UTC. Time now 2017-Dec-16 18:45 UTC.
Position N 37°57' W 008°52'.
Warning: this ship's position is 17 days out of date.

Length 26 m; draft 3.5 m.

Type: Fishing. MMSI: 263407280.

Date/timePositionNaut miles runAvg speedWind from/ knotsBaromVisibWave heightAir tempDewpointWater temp
2017-Nov-29 12:17N 37°57' W 008°52'0 0.0
2017-Nov-29 12:00N 37°57' W 008°52'0 0.2
2017-Nov-29 11:30N 37°57' W 008°52'2 3.6
2017-Nov-29 11:01N 37°57' W 008°55'0 0.9
2017-Nov-29 10:30N 37°58' W 008°55'0 0.4
2017-Nov-29 10:00N 37°58' W 008°55'2 3.3
2017-Nov-29 09:30N 37°59' W 008°54'2 4.3
2017-Nov-29 09:00N 37°57' W 008°54'4 8.2
2017-Nov-29 08:30N 37°54' W 008°50'3 6.9
2017-Nov-29 08:00N 37°51' W 008°52'4 7.3
2017-Nov-29 07:30N 37°48' W 008°51'1 1.7
2017-Nov-29 07:00N 37°48' W 008°50'4 8.9
2017-Nov-29 06:30N 37°53' W 008°50'3 6.7
2017-Nov-29 06:00N 37°56' W 008°52'1 2.6
2017-Nov-29 05:30N 37°57' W 008°52'0 0.0
2017-Nov-28 15:00N 37°57' W 008°52'0 0.0
2017-Nov-28 14:30N 37°57' W 008°52'0 0.0
2017-Nov-28 14:00N 37°57' W 008°52'0 0.0
2017-Nov-28 13:30N 37°57' W 008°52'0 0.0
2017-Nov-28 13:00N 37°57' W 008°52'1 2.5
2017-Nov-28 12:30N 37°56' W 008°53'4 7.1
2017-Nov-28 12:00N 37°60' W 008°55'0 0.6
2017-Nov-28 11:30N 37°59' W 008°55'0 0.3
2017-Nov-28 11:00N 37°59' W 008°54'3 6.2
2017-Nov-28 10:30N 38°02' W 008°52'0 0.5
2017-Nov-28 10:00N 38°01' W 008°52'0 0.1
2017-Nov-28 09:30N 38°01' W 008°52'1 2.8
2017-Nov-28 09:00N 38°00' W 008°53'1 2.0
2017-Nov-28 08:30N 37°59' W 008°54'1 2.0
2017-Nov-28 08:00N 37°59' W 008°55'1 1.1
2017-Nov-28 07:30N 37°59' W 008°54'2 3.2
2017-Nov-28 07:00N 37°58' W 008°56'3 6.2
2017-Nov-28 06:30N 37°57' W 008°53'0 0.9
2017-Nov-28 06:00N 37°57' W 008°52'0 0.0
2017-Nov-27 12:47N 37°57' W 008°52'0 0.2
2017-Nov-27 12:30N 37°57' W 008°52'0 0.0
2017-Nov-27 12:01N 37°57' W 008°52'0 0.0
2017-Nov-27 11:31N 37°57' W 008°52'0 0.0
2017-Nov-27 11:00N 37°57' W 008°52'0 0.0
2017-Nov-27 10:30N 37°57' W 008°52'2 3.6
2017-Nov-27 10:00N 37°59' W 008°54'1 2.4
2017-Nov-27 09:30N 37°60' W 008°53'0 0.2
2017-Nov-27 09:01N 37°60' W 008°53'0 0.2
2017-Nov-27 08:30N 37°60' W 008°53'0 0.1
2017-Nov-27 08:01N 37°60' W 008°53'1 2.8
2017-Nov-27 07:30N 37°59' W 008°55'1 1.5
2017-Nov-27 07:00N 37°58' W 008°55'2 3.9
2017-Nov-27 06:30N 37°57' W 008°52'  
2017-Nov-23 14:05N 37°57' W 008°52'0 0.0
2017-Nov-23 14:00N 37°57' W 008°52'0 0.2
2017-Nov-23 13:30N 37°57' W 008°52'0 0.0
2017-Nov-23 13:00N 37°57' W 008°52'0 0.0
2017-Nov-23 12:30N 37°57' W 008°52'0 0.0
2017-Nov-23 12:00N 37°57' W 008°52'0 0.0
2017-Nov-23 11:30N 37°57' W 008°52'0 0.4
2017-Nov-23 11:00N 37°57' W 008°52'3 6.0
2017-Nov-23 10:30N 37°60' W 008°53'1 2.3
2017-Nov-23 10:00N 38°01' W 008°53'0 1.0
2017-Nov-23 09:30N 38°00' W 008°53'0 0.7
2017-Nov-23 09:00N 38°00' W 008°53'0 0.1
2017-Nov-23 08:30N 38°00' W 008°53'2 3.1
2017-Nov-23 08:00N 37°59' W 008°55'1 1.5
2017-Nov-23 07:30N 37°59' W 008°55'1 2.4
2017-Nov-23 07:00N 37°59' W 008°54'3 5.9
2017-Nov-23 06:30N 37°56' W 008°53'1 2.2
2017-Nov-23 06:00N 37°57' W 008°52'  
Track history (hours):
 
Tides and Currents Weather Stations Pressure Air Temp Water Temp Dewpoint Dewpoint Depression Visibility Wind Speed Wind Dir Waves Ship Positions

Estrela Do Mar

Last reported at 2017-Nov-29 12:17 UTC. Time now 2017-Dec-16 18:45 UTC.
Position N 37°57' W 008°52'.
Warning: this ship's position is 17 days out of date.

Length 26 m; draft 3.5 m.

Type: Fishing. MMSI: 263407280.

Date/timePositionNaut miles runAvg speedWind from/ knotsBaromVisibWave heightAir tempDewpointWater temp
2017-Nov-29 12:17N 37°57' W 008°52'0 0.0
2017-Nov-29 12:00N 37°57' W 008°52'0 0.2
2017-Nov-29 11:30N 37°57' W 008°52'2 3.6
2017-Nov-29 11:01N 37°57' W 008°55'0 0.9
2017-Nov-29 10:30N 37°58' W 008°55'0 0.4
2017-Nov-29 10:00N 37°58' W 008°55'2 3.3
2017-Nov-29 09:30N 37°59' W 008°54'2 4.3
2017-Nov-29 09:00N 37°57' W 008°54'4 8.2
2017-Nov-29 08:30N 37°54' W 008°50'3 6.9
2017-Nov-29 08:00N 37°51' W 008°52'4 7.3
2017-Nov-29 07:30N 37°48' W 008°51'1 1.7
2017-Nov-29 07:00N 37°48' W 008°50'4 8.9
2017-Nov-29 06:30N 37°53' W 008°50'3 6.7
2017-Nov-29 06:00N 37°56' W 008°52'1 2.6
2017-Nov-29 05:30N 37°57' W 008°52'0 0.0
2017-Nov-28 15:00N 37°57' W 008°52'0 0.0
2017-Nov-28 14:30N 37°57' W 008°52'0 0.0
2017-Nov-28 14:00N 37°57' W 008°52'0 0.0
2017-Nov-28 13:30N 37°57' W 008°52'0 0.0
2017-Nov-28 13:00N 37°57' W 008°52'1 2.5
2017-Nov-28 12:30N 37°56' W 008°53'4 7.1
2017-Nov-28 12:00N 37°60' W 008°55'0 0.6
2017-Nov-28 11:30N 37°59' W 008°55'0 0.3
2017-Nov-28 11:00N 37°59' W 008°54'3 6.2
2017-Nov-28 10:30N 38°02' W 008°52'0 0.5
2017-Nov-28 10:00N 38°01' W 008°52'0 0.1
2017-Nov-28 09:30N 38°01' W 008°52'1 2.8
2017-Nov-28 09:00N 38°00' W 008°53'1 2.0
2017-Nov-28 08:30N 37°59' W 008°54'1 2.0
2017-Nov-28 08:00N 37°59' W 008°55'1 1.1
2017-Nov-28 07:30N 37°59' W 008°54'2 3.2
2017-Nov-28 07:00N 37°58' W 008°56'3 6.2
2017-Nov-28 06:30N 37°57' W 008°53'0 0.9
2017-Nov-28 06:00N 37°57' W 008°52'0 0.0
2017-Nov-27 12:47N 37°57' W 008°52'0 0.2
2017-Nov-27 12:30N 37°57' W 008°52'0 0.0
2017-Nov-27 12:01N 37°57' W 008°52'0 0.0
2017-Nov-27 11:31N 37°57' W 008°52'0 0.0
2017-Nov-27 11:00N 37°57' W 008°52'0 0.0
2017-Nov-27 10:30N 37°57' W 008°52'2 3.6
2017-Nov-27 10:00N 37°59' W 008°54'1 2.4
2017-Nov-27 09:30N 37°60' W 008°53'0 0.2
2017-Nov-27 09:01N 37°60' W 008°53'0 0.2
2017-Nov-27 08:30N 37°60' W 008°53'0 0.1
2017-Nov-27 08:01N 37°60' W 008°53'1 2.8
2017-Nov-27 07:30N 37°59' W 008°55'1 1.5
2017-Nov-27 07:00N 37°58' W 008°55'2 3.9
2017-Nov-27 06:30N 37°57' W 008°52'  
2017-Nov-23 14:05N 37°57' W 008°52'0 0.0
2017-Nov-23 14:00N 37°57' W 008°52'0 0.2
2017-Nov-23 13:30N 37°57' W 008°52'0 0.0
2017-Nov-23 13:00N 37°57' W 008°52'0 0.0
2017-Nov-23 12:30N 37°57' W 008°52'0 0.0
2017-Nov-23 12:00N 37°57' W 008°52'0 0.0
2017-Nov-23 11:30N 37°57' W 008°52'0 0.4
2017-Nov-23 11:00N 37°57' W 008°52'3 6.0
2017-Nov-23 10:30N 37°60' W 008°53'1 2.3
2017-Nov-23 10:00N 38°01' W 008°53'0 1.0
2017-Nov-23 09:30N 38°00' W 008°53'0 0.7
2017-Nov-23 09:00N 38°00' W 008°53'0 0.1
2017-Nov-23 08:30N 38°00' W 008°53'2 3.1
2017-Nov-23 08:00N 37°59' W 008°55'1 1.5
2017-Nov-23 07:30N 37°59' W 008°55'1 2.4
2017-Nov-23 07:00N 37°59' W 008°54'3 5.9
2017-Nov-23 06:30N 37°56' W 008°53'1 2.2
2017-Nov-23 06:00N 37°57' W 008°52'  

Dump ship's entire track history